Huvudsida
METAR-TAF:

METAR-TAF

Flygplatser :

Nadi International Airport

Nadi, Fiji

latitud: 17-45S, longitud: 177-27E, höjd: 13 m

Aktuellt väderrapport

Denna rapport gjordes för 47 minuter sedan, klockan 07:00 UTC
Stilla vind
Temperatur 26°C
Fuktighet 89%
Tryck 1013 hPa
Sikt 10 km eller mer
Få moln på en höjd av 2500 ft
Spridda moln på en höjd av 5000 ft

METAR: NFFN 220700Z 00000KT 9999 FEW025 SCT050 26/24 Q1013 NOSIG

Tid: 19:47 (07:47 UTC)

Väderprognos

Denna rapport gjordes för 2 timmar och 27 minuter sedan, klockan 05:20 UTC
Prognos gäller från 22 kl. 06 UTC till 23 kl. 06 UTC
Vind 5 kt från ost
Sikt 10 km eller mer
Få moln på en höjd av 3000 ft
Blir
från 22 kl. 21 UTC till 22 kl. 23 UTC
Vind 10 kt från väst
Blir
från 23 kl. 04 UTC till 23 kl. 06 UTC
Vind 5 kt från ost

TAF: NFFN 220520Z 2206/2306 08005KT 9999 FEW030 BECMG 2221/2223 28010KT BECMG 2304/2306 08005KT

Aktuella väderrapporter och prognoser från 4000 flygplatser (METAR- och TAF-rapporter).

De tillgängliga stationerna syns som gula och röda prickar på kartan.

För musen över prickarna för att se namnen på stationerna.

Klicka sedan för att få väderrapporter och prognoser.

För att ändra kartan: Klicka på de gröna knapparna med ett svart kors på för att zooma in; den gröna knappen med ett streck på för att zooma ut; eller på de gröna pilarna för angränsande kartor.


METAR-TAF: